| time (UTC) | temp F | wind direction | speed knots | gust knots | rain 1hr in | rain 24hr in | rain mn in | humidity % | barometer mb |
| 20260507023016 | 58 | 256 | 0.0 | 0.0 | 0.00 | 0.00 | 0.00 | 68 | 1013.7 |
| 20260507021516 | 58 | 360 | 0.0 | 0.0 | 0.00 | 0.00 | 0.00 | 68 | 1014.1 |
| 20260507020016 | 58 | 254 | 0.0 | 0.0 | 0.00 | 0.00 | 0.00 | 66 | 1013.8 |
| 20260507014520 | 59 | 253 | 0.0 | 0.0 | 0.00 | 0.00 | 0.00 | 62 | 1013.5 |
| 20260507013015 | 61 | 253 | 0.0 | 0.0 | 0.00 | 0.00 | 0.00 | 61 | 1013.2 |
| 20260507011514 | 63 | 360 | 0.0 | 0.0 | 0.00 | 0.00 | 0.00 | 57 | 1012.8 |
| 20260507010027 | 66 | 254 | 0.0 | 0.0 | 0.00 | 0.00 | 0.00 | 49 | 1012.2 |
| 20260507004513 | 69 | 254 | 0.0 | 0.0 | 0.00 | 0.00 | 0.00 | 43 | 1012.2 |
| 20260507003013 | 69 | 259 | 0.9 | 0.0 | 0.00 | 0.00 | 0.00 | 40 | 1012.2 |
| 20260507001512 | 69 | 226 | 1.7 | 0.0 | 0.00 | 0.00 | 0.00 | 44 | 1011.9 |
| 20260507000012 | 69 | 271 | 0.9 | 0.0 | 0.00 | 0.00 | 0.00 | 43 | 1011.8 |
| 20260506234518 | 69 | 238 | 1.7 | 0.0 | 0.00 | 0.00 | 0.00 | 43 | 1011.8 |
| 20260506233009 | 70 | 225 | 0.9 | 0.0 | 0.00 | 0.00 | 0.00 | 42 | 1012.0 |
| 20260506231509 | 70 | 221 | 1.7 | 0.0 | 0.00 | 0.00 | 0.00 | 45 | 1012.3 |
| 20260506230006 | 69 | 241 | 1.7 | 0.0 | 0.00 | 0.00 | 0.00 | 45 | 1012.4 |
| 20260506224516 | 68 | 213 | 1.7 | 0.0 | 0.00 | 0.00 | 0.00 | 45 | 1012.4 |
| 20260506223005 | 69 | 245 | 1.7 | 0.0 | 0.00 | 0.00 | 0.00 | 44 | 1012.4 |
| 20260506221504 | 68 | 192 | 1.7 | 0.0 | 0.00 | 0.00 | 0.00 | 47 | 1012.6 |
| 20260506220002 | 68 | 360 | 1.7 | 0.0 | 0.00 | 0.00 | 0.00 | 47 | 1013.1 |
| 20260506214559 | 67 | 211 | 1.7 | 0.0 | 0.00 | 0.00 | 0.00 | 47 | 1013.1 |
| 20260506213057 | 67 | 278 | 0.9 | 0.0 | 0.00 | 0.00 | 0.00 | 48 | 1013.4 |
| 20260506211558 | 66 | 222 | 1.7 | 0.0 | 0.00 | 0.00 | 0.00 | 48 | 1013.5 |
| 20260506210055 | 66 | 247 | 1.7 | 0.0 | 0.00 | 0.00 | 0.00 | 48 | 1013.8 |
| 20260506204551 | 64 | 219 | 2.6 | 0.0 | 0.00 | 0.00 | 0.00 | 51 | 1014.1 |
| 20260506203058 | 64 | 258 | 2.6 | 0.0 | 0.00 | 0.00 | 0.00 | 53 | 1014.1 |
| 20260506201550 | 64 | 207 | 1.7 | 0.0 | 0.00 | 0.00 | 0.00 | 54 | 1013.8 |
| 20260506200048 | 63 | 229 | 2.6 | 0.0 | 0.00 | 0.00 | 0.00 | 55 | 1013.8 |
| 20260506194551 | 63 | 229 | 1.7 | 0.0 | 0.00 | 0.00 | 0.00 | 54 | 1013.9 |
| 20260506193051 | 63 | 238 | 1.7 | 0.0 | 0.00 | 0.00 | 0.00 | 55 | 1014.2 |
| 20260506191543 | 62 | 254 | 1.7 | 0.0 | 0.00 | 0.00 | 0.00 | 56 | 1014.4 |
| 20260506190041 | 61 | 289 | 0.9 | 0.0 | 0.00 | 0.00 | 0.00 | 59 | 1014.6 |
| 20260506184540 | 60 | 270 | 2.6 | 0.0 | 0.00 | 0.00 | 0.00 | 60 | 1014.5 |
| 20260506183042 | 60 | 250 | 2.6 | 0.0 | 0.00 | 0.00 | 0.00 | 59 | 1014.6 |
| 20260506181552 | 60 | 250 | 2.6 | 0.0 | 0.00 | 0.00 | 0.00 | 57 | 1014.2 |
| 20260506180037 | 61 | 202 | 0.9 | 0.0 | 0.00 | 0.00 | 0.00 | 56 | 1014.5 |
| 20260506174534 | 60 | 232 | 0.9 | 0.0 | 0.00 | 0.00 | 0.00 | 54 | 1014.8 |
| 20260506173038 | 58 | 233 | 1.7 | 0.0 | 0.00 | 0.00 | 0.00 | 55 | 1014.8 |
| 20260506171529 | 57 | 255 | 0.9 | 0.0 | 0.00 | 0.00 | 0.00 | 57 | 1014.5 |
| 20260506170027 | 57 | 257 | 0.0 | 0.0 | 0.00 | 0.00 | 0.00 | 55 | 1014.8 |
| 20260506164524 | 54 | 261 | 0.0 | 0.0 | 0.00 | 0.00 | 0.00 | 57 | 1015.0 |
| 20260506163024 | 53 | 265 | 0.9 | 0.0 | 0.00 | 0.00 | 0.00 | 64 | 1014.5 |
| 20260506161524 | 54 | 273 | 1.7 | 0.0 | 0.00 | 0.00 | 0.00 | 62 | 1014.5 |
| 20260506160034 | 55 | 17 | 0.0 | 0.0 | 0.00 | 0.00 | 0.00 | 54 | 1014.6 |
| 20260506154521 | 52 | 17 | 0.0 | 0.0 | 0.00 | 0.00 | 0.00 | 59 | 1015.1 |
| 20260506153014 | 50 | 17 | 0.0 | 0.0 | 0.00 | 0.00 | 0.00 | 68 | 1015.3 |
| 20260506151511 | 47 | 17 | 0.0 | 0.0 | 0.00 | 0.00 | 0.00 | 80 | 1015.6 |
| 20260506150006 | 44 | 25 | 0.0 | 0.0 | 0.00 | 0.00 | 0.00 | 85 | 1015.4 |
| 20260506144502 | 43 | 25 | 0.0 | 0.0 | 0.00 | 0.00 | 0.00 | 86 | 1015.6 |
| 20260506143100 | 41 | 25 | 0.0 | 0.0 | 0.00 | 0.00 | 0.00 | 86 | 1015.8 |
| 20260506141558 | 41 | 25 | 0.0 | 0.0 | 0.00 | 0.00 | 0.00 | 85 | 1015.5 |
| 20260506140058 | 41 | 25 | 0.0 | 0.0 | 0.00 | 0.00 | 0.00 | 85 | 1015.5 |
| 20260506134558 | 41 | 25 | 0.0 | 0.0 | 0.00 | 0.00 | 0.00 | 86 | 1015.4 |
| 20260506133106 | 40 | 24 | 0.0 | 0.0 | 0.00 | 0.00 | 0.00 | 86 | 1015.1 |
| 20260506131602 | 40 | 25 | 0.0 | 0.0 | 0.00 | 0.00 | 0.00 | 85 | 1015.0 |
| 20260506130057 | 40 | 25 | 0.9 | 0.0 | 0.00 | 0.00 | 0.00 | 84 | 1014.9 |
| 20260506124559 | 40 | 26 | 0.0 | 0.0 | 0.00 | 0.00 | 0.00 | 85 | 1014.8 |
| 20260506123053 | 40 | 26 | 0.0 | 0.0 | 0.00 | 0.00 | 0.00 | 85 | 1014.7 |
| 20260506121552 | 40 | 9 | 0.9 | 0.0 | 0.00 | 0.00 | 0.00 | 86 | 1015.0 |
| 20260506120051 | 40 | 327 | 0.0 | 0.0 | 0.00 | 0.00 | 0.00 | 87 | 1015.0 |
| 20260506114549 | 40 | 325 | 0.0 | 0.0 | 0.00 | 0.00 | 0.00 | 88 | 1015.0 |
| 20260506113049 | 39 | 313 | 0.0 | 0.0 | 0.00 | 0.00 | 0.00 | 88 | 1014.9 |
| 20260506111549 | 39 | 311 | 0.0 | 0.0 | 0.00 | 0.00 | 0.00 | 89 | 1014.9 |
| 20260506110048 | 39 | 311 | 0.0 | 0.0 | 0.00 | 0.00 | 0.00 | 89 | 1015.3 |
| 20260506104550 | 39 | 281 | 0.0 | 0.0 | 0.00 | 0.00 | 0.00 | 89 | 1015.5 |
| 20260506103047 | 39 | 260 | 0.0 | 0.0 | 0.00 | 0.00 | 0.00 | 89 | 1015.5 |
| 20260506101546 | 38 | 260 | 0.0 | 0.0 | 0.00 | 0.00 | 0.00 | 88 | 1015.1 |
| 20260506100045 | 38 | 259 | 0.0 | 0.0 | 0.00 | 0.00 | 0.00 | 88 | 1015.2 |
| 20260506094556 | 38 | 259 | 0.0 | 0.0 | 0.00 | 0.00 | 0.00 | 88 | 1015.3 |
| 20260506093043 | 38 | 259 | 0.0 | 0.0 | 0.00 | 0.00 | 0.00 | 88 | 1015.3 |
| 20260506091543 | 38 | 259 | 0.0 | 0.0 | 0.00 | 0.00 | 0.00 | 88 | 1015.2 |
| 20260506090041 | 38 | 258 | 0.0 | 0.0 | 0.00 | 0.00 | 0.00 | 88 | 1015.4 |
| 20260506084543 | 39 | 258 | 0.0 | 0.0 | 0.00 | 0.00 | 0.00 | 88 | 1015.6 |
| 20260506083040 | 38 | 258 | 0.0 | 0.0 | 0.00 | 0.00 | 0.00 | 87 | 1015.7 |
| 20260506081538 | 39 | 258 | 0.0 | 0.0 | 0.00 | 0.00 | 0.00 | 87 | 1015.4 |
| 20260506073038 | 39 | 258 | 0.0 | 0.0 | 0.00 | 0.00 | 0.00 | 88 | 1015.5 |
| 20260506071536 | 39 | 257 | 0.0 | 0.0 | 0.00 | 0.00 | 0.00 | 87 | 1015.5 |
| 20260506061530 | 40 | 257 | 0.0 | 0.0 | 0.00 | 0.00 | 0.14 | 86 | 1014.3 |
| 20260506044524 | 41 | 257 | 0.0 | 0.0 | 0.00 | 0.00 | 0.14 | 86 | 1013.3 |
| 20260506043023 | 41 | 257 | 0.0 | 0.0 | 0.00 | 0.00 | 0.14 | 85 | 1013.1 |
| 20260506041522 | 41 | 257 | 0.0 | 0.0 | 0.00 | 0.00 | 0.14 | 85 | 1013.7 |
| 20260506040022 | 42 | 257 | 0.0 | 0.0 | 0.00 | 0.00 | 0.14 | 85 | 1013.3 |
| 20260506034520 | 42 | 257 | 0.0 | 0.0 | 0.00 | 0.00 | 0.14 | 85 | 1013.0 |
| 20260506033019 | 43 | 257 | 0.0 | 0.0 | 0.00 | 0.00 | 0.14 | 84 | 1012.8 |
| 20260506031618 | 43 | 257 | 0.0 | 0.0 | 0.00 | 0.00 | 0.14 | 83 | 1012.6 |
| 20260506030028 | 44 | 257 | 0.0 | 0.0 | 0.00 | 0.00 | 0.14 | 83 | 1012.4 |
| 20260506024533 | 45 | 257 | 0.0 | 0.0 | 0.00 | 0.00 | 0.14 | 82 | 1011.8 |